createdAt,value
2018-07-04T00:02:37.217Z,98.80
2018-07-04T00:04:52.095Z,98.70
2018-07-04T00:07:06.729Z,98.80
2018-07-04T00:09:21.523Z,98.80
2018-07-04T00:11:36.312Z,98.90
2018-07-04T00:13:50.932Z,99.00
2018-07-04T00:16:05.773Z,99.00
2018-07-04T00:18:20.635Z,99.10
2018-07-04T00:20:40.831Z,99.00
2018-07-04T00:22:55.630Z,99.40
2018-07-04T00:25:10.559Z,99.50
2018-07-04T00:27:25.342Z,99.40
2018-07-04T00:29:40.397Z,99.30
2018-07-04T00:31:55.206Z,99.20
2018-07-04T00:34:10.197Z,99.40
2018-07-04T00:36:24.980Z,99.50
2018-07-04T00:38:39.809Z,99.50
2018-07-04T00:40:54.699Z,99.50
2018-07-04T00:43:09.447Z,99.50
2018-07-04T00:45:24.252Z,99.50
2018-07-04T00:47:39.022Z,99.70
2018-07-04T00:49:53.689Z,99.60
2018-07-04T00:52:08.636Z,99.60
2018-07-04T00:54:23.752Z,99.70
2018-07-04T00:56:39.055Z,99.80
2018-07-04T00:58:54.033Z,99.90
2018-07-04T01:01:08.827Z,99.90
2018-07-04T01:03:23.704Z,99.90
2018-07-04T01:05:38.540Z,99.90
2018-07-04T01:07:53.414Z,99.90
2018-07-04T01:10:08.350Z,99.90
2018-07-04T01:12:23.020Z,99.90
2018-07-04T01:14:37.729Z,99.90
2018-07-04T01:16:52.539Z,99.90
2018-07-04T01:19:07.533Z,99.90
2018-07-04T01:21:22.393Z,99.90
2018-07-04T01:23:37.523Z,99.90
2018-07-04T01:25:52.468Z,99.90
2018-07-04T01:28:07.189Z,99.90
2018-07-04T01:30:22.170Z,99.90
2018-07-04T01:32:37.023Z,99.90
2018-07-04T01:34:52.836Z,99.90
2018-07-04T01:37:07.704Z,99.90
2018-07-04T01:39:22.566Z,99.90
2018-07-04T01:41:37.445Z,99.90
2018-07-04T01:43:52.182Z,99.90
2018-07-04T01:46:06.910Z,99.90
2018-07-04T01:48:21.700Z,99.90
2018-07-04T01:50:36.493Z,99.90
2018-07-04T01:52:51.199Z,99.90
2018-07-04T01:55:05.900Z,99.90
2018-07-04T01:57:20.514Z,99.90
2018-07-04T01:59:35.427Z,99.90
2018-07-04T02:01:50.379Z,99.90
2018-07-04T02:04:05.209Z,99.90
2018-07-04T02:06:20.110Z,99.90
2018-07-04T02:08:35.287Z,99.90
2018-07-04T02:10:49.887Z,99.90
2018-07-04T02:13:04.652Z,99.90
2018-07-04T02:15:19.291Z,99.90
2018-07-04T02:17:33.975Z,99.90
2018-07-04T02:19:48.983Z,99.90
2018-07-04T02:22:03.731Z,99.90
2018-07-04T02:24:18.436Z,99.90
2018-07-04T02:26:33.090Z,99.90
2018-07-04T02:28:47.805Z,99.90
2018-07-04T02:31:02.515Z,99.90
2018-07-04T02:33:17.188Z,99.90
2018-07-04T02:35:32.131Z,99.90
2018-07-04T02:37:46.976Z,99.90
2018-07-04T02:40:01.716Z,99.90
2018-07-04T02:42:16.429Z,99.90
2018-07-04T02:44:31.272Z,99.90
2018-07-04T02:46:46.080Z,99.90
2018-07-04T02:49:00.650Z,99.90
2018-07-04T02:51:15.378Z,99.90
2018-07-04T02:53:30.199Z,99.90
2018-07-04T02:55:44.949Z,99.90
2018-07-04T02:57:59.630Z,99.90
2018-07-04T03:00:14.377Z,99.90
2018-07-04T03:02:29.205Z,99.90
2018-07-04T03:04:44.845Z,99.90
2018-07-04T03:06:59.630Z,99.90
2018-07-04T03:09:14.355Z,99.90
2018-07-04T03:11:29.039Z,99.90
2018-07-04T03:13:43.659Z,99.90
2018-07-04T03:15:58.525Z,99.90
2018-07-04T03:18:13.367Z,99.90
2018-07-04T03:20:28.158Z,99.90
2018-07-04T03:22:42.990Z,99.90
2018-07-04T03:24:57.856Z,99.90
2018-07-04T03:27:12.712Z,99.90
2018-07-04T03:29:28.295Z,99.90
2018-07-04T03:31:43.164Z,99.90
2018-07-04T03:33:57.899Z,99.90
2018-07-04T03:36:12.610Z,99.90
2018-07-04T03:38:27.800Z,99.90
2018-07-04T03:40:42.547Z,99.90
2018-07-04T03:42:57.335Z,99.90
2018-07-04T03:45:12.071Z,99.90
2018-07-04T03:47:26.909Z,99.90
2018-07-04T03:49:41.916Z,99.90
2018-07-04T03:51:56.739Z,99.90
2018-07-04T03:54:11.706Z,99.90
2018-07-04T03:56:26.442Z,99.90
2018-07-04T03:58:41.121Z,99.90
2018-07-04T04:00:56.069Z,99.90
2018-07-04T04:03:11.080Z,99.90
2018-07-04T04:05:25.813Z,99.90
2018-07-04T04:07:40.655Z,99.90
2018-07-04T04:09:55.301Z,99.90
2018-07-04T04:12:10.018Z,99.90
2018-07-04T04:14:24.789Z,99.90
2018-07-04T04:16:39.270Z,99.90
2018-07-04T04:18:54.002Z,99.90
2018-07-04T04:21:08.598Z,99.90
2018-07-04T04:23:23.330Z,99.90
2018-07-04T04:27:46.922Z,99.90
2018-07-04T04:30:01.774Z,99.90
2018-07-04T04:32:16.456Z,99.90
2018-07-04T04:34:31.139Z,99.90
2018-07-04T04:36:45.804Z,99.90
2018-07-04T04:39:00.843Z,99.90
2018-07-04T04:41:15.371Z,99.90
2018-07-04T04:43:30.010Z,99.90
2018-07-04T04:45:44.685Z,99.90
2018-07-04T04:47:59.315Z,99.90
2018-07-04T04:50:14.006Z,99.90
2018-07-04T04:52:29.477Z,99.90
2018-07-04T04:54:44.111Z,99.90
2018-07-04T04:56:58.707Z,99.90
2018-07-04T04:59:13.437Z,99.90
2018-07-04T05:01:28.147Z,99.90
2018-07-04T05:03:42.951Z,99.90
2018-07-04T05:05:57.838Z,99.90
2018-07-04T05:08:12.624Z,99.90
2018-07-04T05:10:27.217Z,99.90
2018-07-04T05:12:42.011Z,99.90
2018-07-04T05:14:56.976Z,99.90
2018-07-04T05:17:11.586Z,99.90
2018-07-04T05:19:26.347Z,99.90
2018-07-04T05:21:41.053Z,99.90
2018-07-04T05:23:55.737Z,99.90
2018-07-04T05:26:10.412Z,99.90
2018-07-04T05:28:25.157Z,99.90
2018-07-04T05:30:40.081Z,99.90
2018-07-04T05:32:54.791Z,99.90
2018-07-04T05:35:09.478Z,99.90
2018-07-04T05:37:24.395Z,99.90
2018-07-04T05:41:48.164Z,99.90
2018-07-04T05:44:03.032Z,99.90
2018-07-04T05:46:17.781Z,99.90
2018-07-04T05:48:32.615Z,99.90
2018-07-04T05:50:47.580Z,99.90
2018-07-04T05:53:02.314Z,99.90
2018-07-04T05:55:17.193Z,99.90
2018-07-04T05:57:32.149Z,99.90
2018-07-04T05:59:46.970Z,99.90
2018-07-04T06:02:01.727Z,99.90
2018-07-04T06:04:16.488Z,99.90
2018-07-04T06:06:31.217Z,99.90
2018-07-04T06:08:46.011Z,99.90
2018-07-04T06:11:00.923Z,99.90
2018-07-04T06:13:16.032Z,99.90
2018-07-04T06:15:30.866Z,99.70
2018-07-04T06:17:46.027Z,99.90
2018-07-04T06:20:00.639Z,99.90
2018-07-04T06:22:15.308Z,99.90
2018-07-04T06:26:38.859Z,99.90
2018-07-04T06:28:53.620Z,99.90
2018-07-04T06:31:08.234Z,99.90
2018-07-04T06:33:22.976Z,99.60
2018-07-04T06:35:37.752Z,99.40
2018-07-04T06:37:41.472Z,99.20
2018-07-04T06:39:43.821Z,99.30
2018-07-04T06:41:46.204Z,99.00
2018-07-04T06:43:48.563Z,98.80
2018-07-04T06:45:51.032Z,98.60
2018-07-04T06:47:53.486Z,98.70
2018-07-04T06:49:55.872Z,98.50
2018-07-04T06:51:58.240Z,98.70
2018-07-04T06:54:00.638Z,98.00
2018-07-04T06:56:03.148Z,98.30
2018-07-04T06:58:05.512Z,98.30
2018-07-04T07:00:07.871Z,98.40
2018-07-04T07:02:16.581Z,98.40
2018-07-04T07:04:31.518Z,98.00
2018-07-04T07:06:46.368Z,98.20
2018-07-04T07:09:01.057Z,98.10
2018-07-04T07:11:15.835Z,98.00
2018-07-04T07:13:30.403Z,97.40
2018-07-04T07:15:45.048Z,97.60
2018-07-04T07:17:59.960Z,97.20
2018-07-04T07:20:14.764Z,97.20
2018-07-04T07:22:29.439Z,97.20
2018-07-04T07:24:44.137Z,96.60
2018-07-04T07:26:58.947Z,96.40
2018-07-04T07:29:13.776Z,96.70
2018-07-04T07:31:28.470Z,96.50
2018-07-04T07:33:43.140Z,96.60
2018-07-04T07:35:57.789Z,96.20
2018-07-04T07:38:12.451Z,95.60
2018-07-04T07:40:26.960Z,95.50
2018-07-04T07:42:41.551Z,95.50
2018-07-04T07:44:56.076Z,95.30
2018-07-04T07:47:10.988Z,95.30
2018-07-04T07:49:25.796Z,95.20
2018-07-04T07:51:40.781Z,95.00
2018-07-04T07:53:55.477Z,94.70
2018-07-04T07:56:10.082Z,94.50
2018-07-04T07:58:24.796Z,94.40
2018-07-04T08:00:39.560Z,94.40
2018-07-04T08:02:54.949Z,94.20
2018-07-04T08:05:10.150Z,94.40
2018-07-04T08:07:24.956Z,92.90
2018-07-04T08:09:39.636Z,94.20
2018-07-04T08:11:54.347Z,92.70
2018-07-04T08:14:08.972Z,92.60
2018-07-04T08:16:23.756Z,91.00
2018-07-04T08:18:38.373Z,90.70
2018-07-04T08:20:53.007Z,91.10
2018-07-04T08:23:07.620Z,90.50
2018-07-04T08:25:22.296Z,87.60
2018-07-04T08:27:36.960Z,80.90
2018-07-04T08:29:51.836Z,79.80
2018-07-04T08:32:06.665Z,78.80
2018-07-04T08:34:21.347Z,78.10
2018-07-04T08:36:35.888Z,79.90
2018-07-04T08:38:50.628Z,79.90
2018-07-04T08:41:05.292Z,78.30
2018-07-04T08:43:20.155Z,78.60
2018-07-04T08:45:34.964Z,77.90
2018-07-04T08:47:49.588Z,76.80
2018-07-04T08:50:04.432Z,76.50
2018-07-04T08:52:19.160Z,73.60
2018-07-04T08:54:33.914Z,69.00
2018-07-04T08:56:48.719Z,65.70
2018-07-04T08:59:03.535Z,63.60
2018-07-04T09:01:18.536Z,62.70
2018-07-04T09:03:33.220Z,61.60
2018-07-04T09:05:47.859Z,62.30
2018-07-04T09:08:02.469Z,62.60
2018-07-04T09:10:17.331Z,62.20
2018-07-04T09:12:32.007Z,63.10
2018-07-04T09:14:46.767Z,63.70
2018-07-04T09:17:01.364Z,61.80
2018-07-04T09:19:16.092Z,62.00
2018-07-04T09:21:31.489Z,62.80
2018-07-04T09:23:46.090Z,62.50
2018-07-04T09:26:00.658Z,63.10
2018-07-04T09:28:15.292Z,63.50
2018-07-04T09:30:30.026Z,63.60
2018-07-04T09:32:44.766Z,62.70
2018-07-04T09:34:59.473Z,64.30
2018-07-04T09:37:14.282Z,65.20
2018-07-04T09:39:29.038Z,64.60
2018-07-04T09:41:43.704Z,64.50
2018-07-04T09:43:58.418Z,65.70
2018-07-04T09:46:13.225Z,65.50
2018-07-04T09:48:27.800Z,66.40
2018-07-04T09:50:42.416Z,66.00
2018-07-04T09:52:58.087Z,65.50
2018-07-04T09:55:12.826Z,65.30
2018-07-04T09:57:27.396Z,63.80
2018-07-04T09:59:42.655Z,64.70
2018-07-04T10:01:57.492Z,64.20
2018-07-04T10:04:12.143Z,65.90
2018-07-04T10:06:26.731Z,64.60
2018-07-04T10:08:41.335Z,64.60
2018-07-04T10:10:55.920Z,63.70
2018-07-04T10:13:10.767Z,63.30
2018-07-04T10:15:25.642Z,62.90
2018-07-04T10:17:40.518Z,61.60
2018-07-04T10:19:55.247Z,61.90
2018-07-04T10:22:09.875Z,60.90
2018-07-04T10:24:24.444Z,59.70
2018-07-04T10:26:39.386Z,60.50
2018-07-04T10:28:54.184Z,60.40
2018-07-04T10:31:08.765Z,59.00
2018-07-04T10:33:23.512Z,57.70
2018-07-04T10:35:38.247Z,55.90
2018-07-04T10:37:52.898Z,56.60
2018-07-04T10:40:07.634Z,56.30
2018-07-04T10:42:22.216Z,55.50
2018-07-04T10:44:37.240Z,54.90
2018-07-04T10:46:51.767Z,55.70
2018-07-04T10:51:15.299Z,56.00
2018-07-04T10:53:29.954Z,55.80
2018-07-04T10:55:44.612Z,55.50
2018-07-04T10:57:59.192Z,54.50
2018-07-04T11:00:13.967Z,53.90
2018-07-04T11:02:28.663Z,55.10
2018-07-04T11:04:43.491Z,53.80
2018-07-04T11:06:58.322Z,54.00
2018-07-04T11:09:12.934Z,54.00
2018-07-04T11:11:27.772Z,55.00
2018-07-04T11:13:42.593Z,54.40
2018-07-04T11:15:57.555Z,56.20
2018-07-04T11:18:12.293Z,55.10
2018-07-04T11:20:27.133Z,55.30
2018-07-04T11:22:41.987Z,54.90
2018-07-04T11:24:56.657Z,55.30
2018-07-04T11:27:11.276Z,55.10
2018-07-04T11:29:26.018Z,52.60
2018-07-04T11:31:40.608Z,53.90
2018-07-04T11:36:04.131Z,55.00
2018-07-04T11:38:18.869Z,53.70
2018-07-04T11:40:33.546Z,55.30
2018-07-04T11:42:48.269Z,57.60
2018-07-04T11:46:59.435Z,59.70
2018-07-04T11:49:02.211Z,61.80
2018-07-04T11:51:04.633Z,62.50
2018-07-04T11:53:07.026Z,63.20
2018-07-04T11:55:09.400Z,62.80
2018-07-04T11:57:11.796Z,64.60
2018-07-04T11:59:14.226Z,65.20
2018-07-04T12:01:16.787Z,66.10
2018-07-04T12:05:36.531Z,68.20
2018-07-04T12:07:38.943Z,68.80
2018-07-04T12:09:41.411Z,68.20
2018-07-04T12:11:43.839Z,69.30
2018-07-04T12:13:46.327Z,67.90
2018-07-04T12:15:49.849Z,67.20
2018-07-04T12:17:52.603Z,66.90
2018-07-04T12:19:55.213Z,67.50
2018-07-04T12:21:57.681Z,68.20
2018-07-04T12:24:00.137Z,66.80
2018-07-04T12:26:02.528Z,67.90
2018-07-04T12:30:07.700Z,71.00
2018-07-04T12:32:10.091Z,74.00
2018-07-04T12:34:12.576Z,76.70
2018-07-04T12:36:14.994Z,81.60
2018-07-04T12:38:17.573Z,85.20
2018-07-04T12:40:20.312Z,90.00
2018-07-04T12:42:22.730Z,90.70
2018-07-04T12:44:25.097Z,91.60
2018-07-04T12:46:27.983Z,93.10
2018-07-04T12:48:30.369Z,95.30
2018-07-04T12:50:33.567Z,96.20
2018-07-04T12:52:35.969Z,97.30
2018-07-04T12:54:43.773Z,97.20
2018-07-04T12:56:58.456Z,97.50
2018-07-04T12:59:13.453Z,96.80
2018-07-04T13:01:28.127Z,97.00
2018-07-04T13:03:42.865Z,98.00
2018-07-04T13:05:57.525Z,97.60
2018-07-04T13:08:12.406Z,99.10
2018-07-04T13:10:27.445Z,98.20
2018-07-04T13:12:42.491Z,97.30
2018-07-04T13:14:57.215Z,98.00
2018-07-04T13:17:11.864Z,97.90
2018-07-04T13:19:26.806Z,98.30
2018-07-04T13:21:42.620Z,98.40
2018-07-04T13:23:57.359Z,98.80
2018-07-04T13:26:11.959Z,97.80
2018-07-04T13:28:26.823Z,96.90
2018-07-04T13:30:41.634Z,97.80
2018-07-04T13:32:56.409Z,96.70
2018-07-04T13:35:11.145Z,96.10
2018-07-04T13:37:25.968Z,94.60
2018-07-04T13:39:40.813Z,94.10
2018-07-04T13:41:55.726Z,93.70
2018-07-04T13:46:19.331Z,93.50
2018-07-04T13:48:34.127Z,93.10
2018-07-04T13:50:48.661Z,92.70
2018-07-04T13:53:03.268Z,91.90
2018-07-04T13:55:17.878Z,90.30
2018-07-04T13:57:32.624Z,91.20
2018-07-04T13:59:47.324Z,91.70
2018-07-04T14:02:02.037Z,91.20
2018-07-04T14:04:16.803Z,85.50
2018-07-04T14:06:31.434Z,81.00
2018-07-04T14:08:46.420Z,82.10
2018-07-04T14:11:01.134Z,78.00
2018-07-04T14:13:16.244Z,74.30
2018-07-04T14:15:31.007Z,77.10
2018-07-04T14:17:45.844Z,77.10
2018-07-04T14:20:00.748Z,73.60
2018-07-04T14:22:15.604Z,74.50
2018-07-04T14:24:30.307Z,73.30
2018-07-04T14:26:45.193Z,72.80
2018-07-04T14:29:00.313Z,71.80
2018-07-04T14:31:15.103Z,71.00
2018-07-04T14:33:29.744Z,71.80
2018-07-04T14:35:44.577Z,71.50
2018-07-04T14:37:59.236Z,70.90
2018-07-04T14:40:13.971Z,71.80
2018-07-04T14:42:28.910Z,73.30
2018-07-04T14:44:43.565Z,73.20
2018-07-04T14:46:58.388Z,70.80
2018-07-04T14:49:13.053Z,71.50
2018-07-04T14:51:27.733Z,71.50
2018-07-04T14:53:42.510Z,71.10
2018-07-04T14:55:57.179Z,69.90
2018-07-04T14:58:11.969Z,68.80
2018-07-04T15:00:26.681Z,68.10
2018-07-04T15:02:41.519Z,70.10
2018-07-04T15:04:56.226Z,69.70
2018-07-04T15:07:10.882Z,69.70
2018-07-04T15:09:25.627Z,69.70
2018-07-04T15:11:40.287Z,66.30
2018-07-04T15:13:54.982Z,64.80
2018-07-04T15:16:09.696Z,64.20
2018-07-04T15:18:24.976Z,64.70
2018-07-04T15:20:40.104Z,66.60
2018-07-04T15:22:54.834Z,66.40
2018-07-04T15:25:09.464Z,66.90
2018-07-04T15:27:24.299Z,66.80
2018-07-04T15:29:39.076Z,66.60
2018-07-04T15:31:53.797Z,66.50
2018-07-04T15:34:08.551Z,61.40
2018-07-04T15:36:23.336Z,59.90
2018-07-04T15:38:38.336Z,59.90
2018-07-04T15:40:53.342Z,57.60
2018-07-04T15:43:08.005Z,59.00
2018-07-04T15:45:22.648Z,58.00
2018-07-04T15:47:37.162Z,57.80
2018-07-04T15:49:51.852Z,58.00
2018-07-04T15:52:06.731Z,59.10
2018-07-04T15:54:21.640Z,59.30
2018-07-04T15:56:36.407Z,59.60
2018-07-04T15:58:51.434Z,59.80
2018-07-04T16:01:06.230Z,60.60
2018-07-04T16:03:21.068Z,61.20
2018-07-04T16:05:35.981Z,60.80
2018-07-04T16:07:50.916Z,59.90
2018-07-04T16:10:05.835Z,59.30
2018-07-04T16:12:20.737Z,57.20
2018-07-04T16:14:35.663Z,54.70
2018-07-04T16:16:50.672Z,52.80
2018-07-04T16:19:05.451Z,49.80
2018-07-04T16:21:20.369Z,49.40
2018-07-04T16:23:35.062Z,50.70
2018-07-04T16:25:49.993Z,50.90
2018-07-04T16:28:04.879Z,52.90
2018-07-04T16:30:19.653Z,52.70
2018-07-04T16:32:34.336Z,54.70
2018-07-04T16:34:49.060Z,55.40
2018-07-04T16:37:03.822Z,55.50
2018-07-04T16:39:18.494Z,55.00
2018-07-04T16:41:33.179Z,55.10
2018-07-04T16:43:47.889Z,54.60
2018-07-04T16:46:02.592Z,55.70
2018-07-04T16:48:17.470Z,54.40
2018-07-04T16:50:32.223Z,54.80
2018-07-04T16:52:47.017Z,57.30
2018-07-04T16:55:01.683Z,59.10
2018-07-04T16:57:16.453Z,59.40
2018-07-04T16:59:31.351Z,60.10
2018-07-04T17:01:46.208Z,59.30
2018-07-04T17:04:00.984Z,59.80
2018-07-04T17:06:16.181Z,60.80
2018-07-04T17:08:30.794Z,61.40
2018-07-04T17:10:46.418Z,61.90
2018-07-04T17:13:11.834Z,61.10
2018-07-04T17:15:26.929Z,61.40
2018-07-04T17:17:41.613Z,62.60
2018-07-04T17:19:56.418Z,63.60
2018-07-04T17:22:11.157Z,64.00
2018-07-04T17:24:26.203Z,64.40
2018-07-04T17:26:41.148Z,64.80
2018-07-04T17:28:56.089Z,64.90
2018-07-04T17:31:11.042Z,65.30
2018-07-04T17:33:25.967Z,66.10
2018-07-04T17:35:40.774Z,67.30
2018-07-04T17:37:55.521Z,67.20
2018-07-04T17:40:10.585Z,68.10
2018-07-04T17:42:25.454Z,68.50
2018-07-04T17:44:40.722Z,69.60
2018-07-04T17:46:55.483Z,69.80
2018-07-04T17:49:10.325Z,70.30
2018-07-04T17:51:24.956Z,70.90
2018-07-04T17:53:39.731Z,71.80
2018-07-04T17:55:54.386Z,71.50
2018-07-04T17:58:09.308Z,71.60
2018-07-04T18:00:24.122Z,72.00
2018-07-04T18:02:39.071Z,72.20
2018-07-04T18:04:53.953Z,72.40
2018-07-04T18:07:08.641Z,72.70
2018-07-04T18:09:23.395Z,73.60
2018-07-04T18:11:38.341Z,74.10
2018-07-04T18:13:53.597Z,74.80
2018-07-04T18:16:08.412Z,75.10
2018-07-04T18:18:23.292Z,75.20
2018-07-04T18:20:38.089Z,75.30
2018-07-04T18:22:52.931Z,75.90
2018-07-04T18:25:07.661Z,76.20
2018-07-04T18:27:22.419Z,76.60
2018-07-04T18:29:37.318Z,77.20
2018-07-04T18:31:52.337Z,77.30
2018-07-04T18:34:07.553Z,77.30
2018-07-04T18:36:22.377Z,77.40
2018-07-04T18:38:37.370Z,77.60
2018-07-04T18:40:52.459Z,77.90
2018-07-04T18:43:07.314Z,78.30
2018-07-04T18:45:22.374Z,78.80
2018-07-04T18:47:37.063Z,79.50
2018-07-04T18:49:51.964Z,79.30
2018-07-04T18:52:06.844Z,79.80
2018-07-04T18:54:21.801Z,79.70
2018-07-04T18:56:36.751Z,79.80
2018-07-04T18:58:52.147Z,80.30
2018-07-04T19:01:06.958Z,80.60
2018-07-04T19:03:21.836Z,81.20
2018-07-04T19:05:36.790Z,81.80
2018-07-04T19:10:00.642Z,82.30
2018-07-04T19:12:15.730Z,82.90
2018-07-04T19:14:30.600Z,83.50
2018-07-04T19:16:45.362Z,84.20
2018-07-04T19:19:00.237Z,84.30
2018-07-04T19:21:15.245Z,85.10
2018-07-04T19:23:30.150Z,85.50
2018-07-04T19:25:45.279Z,85.00
2018-07-04T19:28:00.194Z,86.00
2018-07-04T19:30:15.065Z,85.60
2018-07-04T19:32:30.011Z,86.50
2018-07-04T19:34:44.585Z,87.30
2018-07-04T19:36:59.455Z,87.40
2018-07-04T19:39:15.178Z,87.80
2018-07-04T19:41:29.987Z,88.10
2018-07-04T19:43:44.852Z,88.90
2018-07-04T19:45:59.622Z,88.90
2018-07-04T19:48:14.552Z,88.60
2018-07-04T19:50:29.671Z,88.90
2018-07-04T19:52:44.467Z,89.00
2018-07-04T19:54:59.916Z,89.70
2018-07-04T19:57:14.810Z,90.40
2018-07-04T19:59:29.382Z,90.60
2018-07-04T20:01:44.150Z,90.60
2018-07-04T20:03:59.042Z,90.80
2018-07-04T20:06:14.024Z,90.70
2018-07-04T20:08:28.817Z,91.10
2018-07-04T20:10:43.632Z,91.60
2018-07-04T20:12:58.547Z,92.20
2018-07-04T20:15:13.335Z,92.60
2018-07-04T20:17:28.049Z,92.60
2018-07-04T20:19:42.843Z,92.70
2018-07-04T20:21:57.679Z,92.80
2018-07-04T20:24:12.580Z,92.70
2018-07-04T20:26:27.547Z,92.70
2018-07-04T20:28:42.561Z,92.60
2018-07-04T20:30:57.350Z,92.60
2018-07-04T20:33:12.248Z,92.60
2018-07-04T20:35:27.210Z,92.40
2018-07-04T20:37:42.016Z,92.70
2018-07-04T20:39:56.895Z,93.00
2018-07-04T20:42:11.986Z,93.10
2018-07-04T20:44:26.837Z,93.60
2018-07-04T20:46:42.144Z,93.50
2018-07-04T20:48:57.017Z,93.70
2018-07-04T20:51:12.070Z,93.90
2018-07-04T20:53:26.759Z,94.00
2018-07-04T20:55:41.781Z,94.10
2018-07-04T20:57:56.497Z,94.00
2018-07-04T21:00:11.474Z,94.10
2018-07-04T21:02:26.382Z,94.20
2018-07-04T21:04:41.197Z,94.30
2018-07-04T21:06:55.818Z,94.50
2018-07-04T21:09:10.262Z,94.60
2018-07-04T21:11:25.075Z,94.20
2018-07-04T21:13:39.966Z,94.50
2018-07-04T21:15:54.623Z,94.30
2018-07-04T21:18:09.410Z,93.60
2018-07-04T21:20:24.527Z,94.10
2018-07-04T21:22:39.152Z,94.70
2018-07-04T21:24:53.809Z,95.00
2018-07-04T21:27:08.808Z,95.20
2018-07-04T21:29:23.512Z,95.60
2018-07-04T21:31:38.385Z,95.70
2018-07-04T21:33:53.279Z,95.80
2018-07-04T21:36:08.078Z,95.70
2018-07-04T21:38:23.074Z,95.50
2018-07-04T21:40:37.920Z,95.60
2018-07-04T21:42:52.797Z,95.80
2018-07-04T21:45:08.046Z,95.70
2018-07-04T21:47:22.716Z,95.80
2018-07-04T21:49:37.580Z,95.70
2018-07-04T21:51:52.398Z,95.80
2018-07-04T21:54:07.293Z,95.80
2018-07-04T21:56:22.075Z,95.80
2018-07-04T21:58:36.877Z,95.80
2018-07-04T22:00:51.798Z,95.90
2018-07-04T22:03:06.560Z,96.00
2018-07-04T22:05:21.269Z,96.00
2018-07-04T22:07:36.113Z,95.80
2018-07-04T22:09:50.965Z,95.20
2018-07-04T22:12:05.935Z,95.10
2018-07-04T22:16:29.617Z,95.80
2018-07-04T22:18:44.405Z,96.20
2018-07-04T22:20:59.339Z,96.30
2018-07-04T22:25:23.023Z,96.50
2018-07-04T22:27:38.189Z,96.50
2018-07-04T22:29:53.387Z,96.50
2018-07-04T22:32:08.226Z,96.60
2018-07-04T22:34:22.919Z,96.30
2018-07-04T22:36:37.777Z,96.40
2018-07-04T22:38:52.439Z,96.40
2018-07-04T22:41:07.193Z,96.60
2018-07-04T22:43:21.957Z,96.80
2018-07-04T22:45:36.798Z,96.90
2018-07-04T22:50:00.548Z,96.30
2018-07-04T22:52:15.471Z,96.40
2018-07-04T22:54:30.249Z,96.80
2018-07-04T22:56:45.139Z,96.90
2018-07-04T22:59:00.128Z,97.20
2018-07-04T23:01:15.099Z,97.10
2018-07-04T23:03:30.068Z,96.90
2018-07-04T23:07:53.840Z,96.90
2018-07-04T23:10:08.770Z,96.90
2018-07-04T23:12:23.563Z,96.90
2018-07-04T23:14:38.180Z,96.80
2018-07-04T23:16:53.042Z,96.90
2018-07-04T23:19:07.858Z,96.70
2018-07-04T23:23:31.431Z,96.80
2018-07-04T23:25:46.303Z,97.00
2018-07-04T23:28:01.237Z,96.90
2018-07-04T23:30:16.820Z,96.90
2018-07-04T23:32:31.581Z,96.90
2018-07-04T23:34:46.752Z,96.70
2018-07-04T23:37:01.364Z,96.70
2018-07-04T23:39:16.035Z,96.60
2018-07-04T23:41:30.842Z,96.70
2018-07-04T23:43:45.648Z,96.70
2018-07-04T23:46:00.480Z,96.40
2018-07-04T23:48:15.362Z,96.30
2018-07-04T23:50:30.081Z,96.20
2018-07-04T23:52:44.996Z,96.20
2018-07-04T23:55:00.167Z,96.20
2018-07-04T23:57:15.061Z,96.20
2018-07-04T23:59:29.985Z,96.30
